Time;durP1;ratioP1;P1;durP2;ratioP2;P2;SDS_P1;SDS_P2;PMS_P1;PMS_P2;Temp;Humidity;BMP_temperature;BMP_pressure;BME280_temperature;BME280_humidity;BME280_pressure;Samples;Min_cycle;Max_cycle;Signal;HPM_P1;HPM_P2
2022/09/22 00:00:36;;;;;;;;;6.00;5.00;;;;;;;;5044457;28;45228;-73
2022/09/22 00:03:02;;;;;;;;;8.75;5.50;;;;;;;;5053272;28;45406;-73
2022/09/22 00:05:27;;;;;;;;;7.50;6.00;;;;;;;;5045782;28;45364;-73
2022/09/22 00:07:52;;;;;;;;;6.00;5.00;;;;;;;;5047442;28;45352;-73
2022/09/22 00:10:20;;;;;;;;;5.75;5.75;;;;;;;;5046020;28;45489;-72
2022/09/22 00:12:46;;;;;;;;;5.75;5.00;;;;;;;;5049299;28;45566;-72
2022/09/22 00:15:11;;;;;;;;;5.00;5.00;;;;;;;;5047891;28;45342;-72
2022/09/22 00:17:36;;;;;;;;;9.00;7.75;;;;;;;;5051397;28;45431;-73
2022/09/22 00:20:01;;;;;;;;;6.25;4.75;;;;;;;;5055405;28;45452;-72
2022/09/22 00:22:27;;;;;;;;;6.00;5.75;;;;;;;;5053218;28;45293;-72
2022/09/22 00:24:52;;;;;;;;;7.25;5.75;;;;;;;;5054859;28;45251;-73
2022/09/22 00:27:17;;;;;;;;;7.00;7.00;;;;;;;;5053640;28;45501;-73
2022/09/22 00:29:43;;;;;;;;;5.00;5.00;;;;;;;;5055461;28;45501;-73
2022/09/22 00:32:08;;;;;;;;;6.00;5.00;;;;;;;;5052769;28;45446;-73
2022/09/22 00:34:34;;;;;;;;;6.00;6.00;;;;;;;;5056490;28;45347;-73
2022/09/22 00:36:59;;;;;;;;;10.00;7.00;;;;;;;;5051693;28;44696;-73
2022/09/22 00:39:26;;;;;;;;;12.50;11.00;;;;;;;;5043936;28;45392;-73
2022/09/22 00:41:51;;;;;;;;;11.50;10.00;;;;;;;;5051036;28;45333;-73
2022/09/22 00:44:25;;;;;;;;;15.25;13.00;;;;;;;;5049831;28;45312;-73
2022/09/22 00:46:53;;;;;;;;;13.00;12.25;;;;;;;;5047145;28;45269;-73
2022/09/22 00:49:21;;;;;;;;;14.75;14.75;;;;;;;;5051060;28;45812;-73
2022/09/22 00:51:47;;;;;;;;;11.75;11.25;;;;;;;;5046886;28;46773;-73
2022/09/22 00:54:14;;;;;;;;;15.25;11.50;;;;;;;;5052127;28;45280;-73
2022/09/22 00:56:46;;;;;;;;;14.25;12.25;;;;;;;;5048889;28;45237;-73
2022/09/22 00:59:13;;;;;;;;;17.75;13.75;;;;;;;;5057419;28;45520;-73
2022/09/22 01:01:39;;;;;;;;;15.75;13.75;;;;;;;;5053459;28;45541;-73
2022/09/22 01:04:05;;;;;;;;;16.25;12.25;;;;;;;;5060455;28;45460;-73
2022/09/22 01:06:30;;;;;;;;;17.00;15.00;;;;;;;;5054994;28;45311;-73
2022/09/22 01:08:56;;;;;;;;;14.00;14.00;;;;;;;;5056064;28;45322;-73
2022/09/22 01:11:22;;;;;;;;;17.25;13.50;;;;;;;;5046572;28;45451;-73
2022/09/22 01:13:50;;;;;;;;;15.75;13.50;;;;;;;;5055363;28;45254;-73
2022/09/22 01:16:23;;;;;;;;;15.25;15.25;;;;;;;;5068790;28;45382;-72
2022/09/22 01:18:58;;;;;;;;;15.00;13.50;;;;;;;;5060728;28;45499;-72
2022/09/22 01:21:41;;;;;;;;;19.00;16.50;;;;;;;;5054519;28;46995;-73
2022/09/22 01:24:26;;;;;;;;;18.25;15.75;;;;;;;;5059442;28;45416;-73
2022/09/22 01:27:24;;;;;;;;;15.75;14.50;;;;;;;;5054094;28;45234;-73
2022/09/22 01:30:08;;;;;;;;;14.75;14.75;;;;;;;;5034695;28;45721;-72
2022/09/22 01:32:40;;;;;;;;;22.75;18.00;;;;;;;;5057070;28;46541;-72
2022/09/22 01:35:23;;;;;;;;;18.75;14.50;;;;;;;;5050275;28;45702;-73
2022/09/22 01:37:56;;;;;;;;;19.75;18.25;;;;;;;;5054617;28;45248;-73
2022/09/22 01:40:21;;;;;;;;;15.25;13.50;;;;;;;;5047897;28;45344;-72
2022/09/22 01:42:51;;;;;;;;;15.50;15.25;;;;;;;;5050753;28;46220;-73
2022/09/22 01:45:19;;;;;;;;;16.00;14.00;;;;;;;;5049972;28;45292;-72
2022/09/22 01:47:47;;;;;;;;;16.25;16.00;;;;;;;;5055441;28;45395;-72
2022/09/22 01:50:19;;;;;;;;;18.00;16.00;;;;;;;;5058088;28;45465;-72
2022/09/22 01:52:45;;;;;;;;;17.50;16.25;;;;;;;;5061358;28;45791;-72
2022/09/22 01:55:12;;;;;;;;;17.50;15.50;;;;;;;;5055793;28;45332;-72
2022/09/22 01:57:50;;;;;;;;;16.25;15.75;;;;;;;;5060850;28;45509;-72
2022/09/22 02:00:15;;;;;;;;;15.75;15.75;;;;;;;;5053640;28;45358;-72
2022/09/22 02:03:00;;;;;;;;;17.75;16.50;;;;;;;;5052274;28;45313;-72
2022/09/22 02:05:45;;;;;;;;;15.00;14.75;;;;;;;;5047525;28;45384;-72
2022/09/22 02:08:13;;;;;;;;;15.00;14.25;;;;;;;;5059337;28;45309;-72
2022/09/22 02:10:41;;;;;;;;;16.75;14.00;;;;;;;;5051250;27;47054;-72
2022/09/22 02:13:06;;;;;;;;;16.00;12.25;;;;;;;;5048696;28;45260;-72
2022/09/22 02:18:20;;;;;;;;;17.75;15.25;;;;;;;;5054631;28;45415;-72
2022/09/22 02:20:46;;;;;;;;;16.75;13.75;;;;;;;;5051248;28;45502;-72
2022/09/22 02:23:11;;;;;;;;;15.75;14.00;;;;;;;;5055516;28;45447;-73
2022/09/22 02:25:38;;;;;;;;;16.00;15.00;;;;;;;;5057101;28;45328;-72
2022/09/22 02:28:04;;;;;;;;;17.50;16.25;;;;;;;;5056723;28;45402;-73
2022/09/22 02:30:30;;;;;;;;;14.00;14.00;;;;;;;;5057586;28;45514;-73
2022/09/22 02:32:56;;;;;;;;;15.75;15.75;;;;;;;;5082664;27;47638;-72
2022/09/22 02:35:24;;;;;;;;;15.50;14.50;;;;;;;;5048522;28;45458;-72
2022/09/22 02:37:52;;;;;;;;;14.75;14.50;;;;;;;;5047682;28;45328;-73
2022/09/22 02:40:36;;;;;;;;;23.00;17.50;;;;;;;;5044494;28;45490;-73
2022/09/22 02:43:02;;;;;;;;;16.50;15.00;;;;;;;;5065466;28;47683;-72
2022/09/22 02:45:33;;;;;;;;;33.40;30.40;;;;;;;;5047695;28;45198;-72
2022/09/22 02:48:02;;;;;;;;;22.00;20.00;;;;;;;;5047768;28;45359;-72
2022/09/22 02:50:29;;;;;;;;;17.75;15.50;;;;;;;;5049215;28;45209;-72
2022/09/22 02:53:00;;;;;;;;;21.00;16.75;;;;;;;;5051892;28;46409;-72
2022/09/22 02:55:26;;;;;;;;;16.50;14.50;;;;;;;;5055942;28;45326;-72
2022/09/22 02:57:51;;;;;;;;;16.25;15.75;;;;;;;;5052839;28;45307;-72
2022/09/22 03:00:16;;;;;;;;;17.75;17.75;;;;;;;;5055452;28;45497;-72
2022/09/22 03:02:41;;;;;;;;;20.75;18.00;;;;;;;;5054621;28;46609;-73
2022/09/22 03:05:06;;;;;;;;;16.20;15.60;;;;;;;;5058929;28;45694;-72
2022/09/22 03:07:32;;;;;;;;;17.00;14.75;;;;;;;;5050133;28;45538;-72
2022/09/22 03:09:57;;;;;;;;;16.75;16.50;;;;;;;;5047915;28;45518;-72
2022/09/22 03:12:22;;;;;;;;;15.50;13.50;;;;;;;;5052127;28;46073;-73
2022/09/22 03:14:49;;;;;;;;;11.00;8.00;;;;;;;;5050293;28;45272;-73
2022/09/22 03:17:14;;;;;;;;;17.25;14.50;;;;;;;;5052212;28;45587;-72
2022/09/22 03:19:39;;;;;;;;;18.00;15.00;;;;;;;;5052610;28;45431;-72
2022/09/22 03:22:04;;;;;;;;;16.25;16.00;;;;;;;;5055120;28;45437;-72
2022/09/22 03:24:30;;;;;;;;;18.00;17.75;;;;;;;;5053740;28;45305;-72
2022/09/22 03:26:55;;;;;;;;;18.00;14.50;;;;;;;;5056890;28;45571;-72
2022/09/22 03:29:20;;;;;;;;;13.25;12.50;;;;;;;;5083803;27;46098;-72
2022/09/22 03:31:45;;;;;;;;;15.00;14.25;;;;;;;;5054572;28;46569;-72
2022/09/22 03:34:11;;;;;;;;;19.00;14.75;;;;;;;;5055191;28;45158;-72
2022/09/22 03:36:36;;;;;;;;;15.75;14.50;;;;;;;;5056233;28;45364;-72
2022/09/22 03:39:01;;;;;;;;;15.00;14.00;;;;;;;;5057599;28;45208;-72
2022/09/22 03:41:26;;;;;;;;;17.00;15.00;;;;;;;;5046484;28;45582;-72
2022/09/22 03:43:52;;;;;;;;;15.00;13.75;;;;;;;;5051928;27;45399;-72
2022/09/22 03:46:17;;;;;;;;;16.50;16.00;;;;;;;;5049531;28;45511;-72
2022/09/22 03:48:42;;;;;;;;;19.50;15.75;;;;;;;;5049927;28;45319;-72
2022/09/22 03:51:08;;;;;;;;;15.50;14.50;;;;;;;;5064303;28;47216;-72
2022/09/22 03:53:33;;;;;;;;;15.00;15.00;;;;;;;;5062424;28;45406;-72
2022/09/22 03:56:09;;;;;;;;;15.50;15.50;;;;;;;;5042350;28;45641;-72
2022/09/22 03:58:35;;;;;;;;;16.25;15.00;;;;;;;;5050350;28;45367;-72
2022/09/22 04:01:00;;;;;;;;;17.50;17.00;;;;;;;;5053124;28;45454;-72
2022/09/22 04:03:25;;;;;;;;;18.25;15.00;;;;;;;;5057923;28;45442;-72
2022/09/22 04:05:51;;;;;;;;;16.25;15.25;;;;;;;;5056773;28;45427;-72
2022/09/22 04:08:16;;;;;;;;;15.50;13.50;;;;;;;;5053244;28;45036;-72
2022/09/22 04:10:43;;;;;;;;;16.00;16.00;;;;;;;;5061950;28;45397;-72
2022/09/22 04:13:09;;;;;;;;;17.50;15.50;;;;;;;;5056939;28;45349;-72
2022/09/22 04:15:34;;;;;;;;;20.75;16.25;;;;;;;;5043611;28;45538;-72
2022/09/22 04:17:59;;;;;;;;;16.00;15.50;;;;;;;;5051065;28;45334;-71
2022/09/22 04:20:24;;;;;;;;;18.25;15.00;;;;;;;;5046915;28;45268;-72
2022/09/22 04:22:50;;;;;;;;;15.50;15.50;;;;;;;;5051070;28;45450;-72
2022/09/22 04:25:15;;;;;;;;;17.75;16.75;;;;;;;;5050261;28;45432;-72
2022/09/22 04:27:40;;;;;;;;;18.75;15.00;;;;;;;;5054479;28;45266;-72
2022/09/22 04:30:06;;;;;;;;;13.50;13.25;;;;;;;;5051379;28;46452;-72
2022/09/22 04:32:31;;;;;;;;;16.75;14.75;;;;;;;;5054811;28;45378;-72
2022/09/22 04:34:56;;;;;;;;;15.25;13.75;;;;;;;;5058637;28;45342;-72
2022/09/22 04:37:22;;;;;;;;;17.00;16.00;;;;;;;;5054452;28;45422;-73
2022/09/22 04:39:47;;;;;;;;;18.25;16.75;;;;;;;;5056869;28;46028;-72
2022/09/22 04:42:12;;;;;;;;;14.75;13.00;;;;;;;;5054009;28;45331;-72
2022/09/22 04:44:37;;;;;;;;;18.00;15.50;;;;;;;;5058491;28;45296;-72
2022/09/22 04:47:03;;;;;;;;;16.50;14.75;;;;;;;;5057605;28;45621;-72
2022/09/22 04:49:28;;;;;;;;;16.50;15.75;;;;;;;;5055274;28;45348;-72
2022/09/22 04:51:53;;;;;;;;;21.50;16.50;;;;;;;;5056025;28;45489;-73
2022/09/22 04:54:18;;;;;;;;;15.75;15.00;;;;;;;;5084411;27;45318;-72
2022/09/22 04:56:43;;;;;;;;;14.75;13.50;;;;;;;;5042878;28;45446;-72
2022/09/22 04:59:09;;;;;;;;;18.75;15.50;;;;;;;;5054699;28;45447;-72
2022/09/22 05:01:34;;;;;;;;;17.00;13.25;;;;;;;;5048037;28;45413;-71
2022/09/22 05:04:00;;;;;;;;;17.25;14.75;;;;;;;;5057752;28;45504;-71
2022/09/22 05:06:25;;;;;;;;;14.50;14.50;;;;;;;;5051125;28;45490;-71
2022/09/22 05:08:50;;;;;;;;;16.25;16.25;;;;;;;;5048464;28;45363;-72
2022/09/22 05:11:16;;;;;;;;;15.25;13.00;;;;;;;;5044027;28;45354;-71
2022/09/22 05:13:41;;;;;;;;;13.75;12.75;;;;;;;;5050864;28;45359;-71
2022/09/22 05:16:07;;;;;;;;;16.50;14.25;;;;;;;;5046414;28;45283;-71
2022/09/22 05:18:32;;;;;;;;;20.00;16.75;;;;;;;;5053523;28;46090;-72
2022/09/22 05:20:58;;;;;;;;;16.50;15.25;;;;;;;;5048011;28;45403;-71
2022/09/22 05:23:24;;;;;;;;;19.75;12.75;;;;;;;;5056160;28;45436;-71
2022/09/22 05:25:49;;;;;;;;;15.50;14.50;;;;;;;;5052048;28;45190;-72
2022/09/22 05:28:14;;;;;;;;;17.00;17.00;;;;;;;;5056157;28;45267;-72
2022/09/22 05:30:39;;;;;;;;;27.75;24.00;;;;;;;;5070281;28;45446;-73
2022/09/22 05:33:04;;;;;;;;;18.25;15.25;;;;;;;;5058600;28;45338;-72
2022/09/22 05:35:30;;;;;;;;;19.75;17.00;;;;;;;;5056108;28;45625;-73
2022/09/22 05:37:55;;;;;;;;;27.25;23.25;;;;;;;;5049429;28;45255;-73
2022/09/22 05:40:22;;;;;;;;;20.75;18.25;;;;;;;;5049256;28;45223;-72
2022/09/22 05:42:48;;;;;;;;;13.75;13.00;;;;;;;;5055085;28;45425;-72
2022/09/22 05:45:14;;;;;;;;;16.75;16.50;;;;;;;;5047755;28;45539;-72
2022/09/22 05:47:40;;;;;;;;;25.25;16.25;;;;;;;;5056057;28;46499;-73
2022/09/22 05:50:06;;;;;;;;;15.75;14.00;;;;;;;;5053832;28;45426;-74
2022/09/22 05:52:32;;;;;;;;;19.75;19.75;;;;;;;;5070917;28;45334;-73
2022/09/22 05:54:57;;;;;;;;;19.50;19.50;;;;;;;;5046365;28;45232;-75
2022/09/22 05:57:26;;;;;;;;;23.00;18.00;;;;;;;;5058026;28;45934;-75
2022/09/22 05:59:52;;;;;;;;;20.00;16.75;;;;;;;;5049431;28;45296;-73
2022/09/22 06:02:17;;;;;;;;;21.00;21.00;;;;;;;;5055061;28;45257;-72
2022/09/22 06:04:42;;;;;;;;;20.50;18.00;;;;;;;;5055401;28;45437;-74
2022/09/22 06:07:07;;;;;;;;;24.00;21.50;;;;;;;;5059072;28;46241;-73
2022/09/22 06:09:32;;;;;;;;;23.25;20.00;;;;;;;;5061129;28;45244;-75
2022/09/22 06:11:58;;;;;;;;;21.25;20.50;;;;;;;;5057539;28;45413;-74
2022/09/22 06:14:23;;;;;;;;;16.50;15.75;;;;;;;;5060928;28;45320;-75
2022/09/22 06:16:48;;;;;;;;;25.25;21.75;;;;;;;;5058712;28;45379;-74
2022/09/22 06:19:13;;;;;;;;;21.75;17.75;;;;;;;;5061040;28;45383;-75
2022/09/22 06:21:38;;;;;;;;;24.75;21.50;;;;;;;;5053191;28;45460;-74
2022/09/22 06:24:04;;;;;;;;;22.25;19.75;;;;;;;;5061603;28;45365;-74
2022/09/22 06:26:29;;;;;;;;;21.75;20.25;;;;;;;;5052075;28;45758;-75
2022/09/22 06:28:55;;;;;;;;;20.50;18.00;;;;;;;;5054424;28;45335;-74
2022/09/22 06:31:20;;;;;;;;;19.75;17.25;;;;;;;;5055417;28;45560;-74
2022/09/22 06:33:47;;;;;;;;;23.50;19.00;;;;;;;;5090157;27;46969;-74
2022/09/22 06:36:26;;;;;;;;;21.25;19.50;;;;;;;;5055515;28;45395;-74
2022/09/22 06:38:53;;;;;;;;;24.50;21.00;;;;;;;;5060757;28;45145;-75
2022/09/22 06:41:18;;;;;;;;;24.50;20.25;;;;;;;;5049600;28;45524;-74
2022/09/22 06:43:43;;;;;;;;;23.00;21.75;;;;;;;;5057105;28;45936;-74
2022/09/22 06:46:09;;;;;;;;;23.25;20.25;;;;;;;;5050629;28;45233;-75
2022/09/22 06:48:36;;;;;;;;;22.00;21.00;;;;;;;;5086167;27;45932;-75
2022/09/22 06:51:02;;;;;;;;;20.75;19.00;;;;;;;;5052929;28;45430;-75
2022/09/22 06:53:27;;;;;;;;;24.75;21.75;;;;;;;;5047047;28;45335;-75
2022/09/22 06:55:52;;;;;;;;;19.00;18.25;;;;;;;;5056263;28;45200;-74
2022/09/22 06:58:18;;;;;;;;;18.00;17.00;;;;;;;;5050223;28;45283;-74
2022/09/22 07:00:43;;;;;;;;;19.00;15.75;;;;;;;;5053252;28;45241;-74
2022/09/22 07:03:19;;;;;;;;;18.50;16.25;;;;;;;;5052257;28;45610;-73
2022/09/22 07:05:52;;;;;;;;;15.00;15.00;;;;;;;;5056452;28;48054;-74
2022/09/22 07:08:18;;;;;;;;;14.25;13.00;;;;;;;;5051396;28;45423;-74
2022/09/22 07:10:43;;;;;;;;;12.75;12.75;;;;;;;;5054780;28;45364;-74
2022/09/22 07:13:09;;;;;;;;;13.00;13.00;;;;;;;;5053522;28;45290;-74
2022/09/22 07:15:35;;;;;;;;;15.50;13.50;;;;;;;;5089018;27;47202;-74
2022/09/22 07:18:00;;;;;;;;;11.75;11.75;;;;;;;;5055732;28;45443;-74
2022/09/22 07:20:25;;;;;;;;;15.25;14.00;;;;;;;;5082096;27;45504;-74
2022/09/22 07:22:58;;;;;;;;;14.75;14.75;;;;;;;;5050207;28;45343;-75
2022/09/22 07:25:23;;;;;;;;;19.00;14.75;;;;;;;;5045397;28;45228;-74
2022/09/22 07:27:48;;;;;;;;;12.25;11.00;;;;;;;;5050828;28;45435;-73
2022/09/22 07:30:13;;;;;;;;;21.50;16.50;;;;;;;;5054785;28;45403;-73
2022/09/22 07:32:38;;;;;;;;;16.00;14.75;;;;;;;;5058147;28;45319;-73
2022/09/22 07:35:04;;;;;;;;;16.50;13.50;;;;;;;;5055448;28;46277;-73
2022/09/22 07:37:32;;;;;;;;;15.00;14.00;;;;;;;;5056657;28;45356;-73
2022/09/22 07:39:59;;;;;;;;;21.75;15.00;;;;;;;;5071845;28;45536;-73
2022/09/22 07:42:25;;;;;;;;;19.00;17.00;;;;;;;;5053467;28;45939;-73
2022/09/22 07:50:17;;;;;;;;;18.00;16.50;;;;;;;;5051124;28;45430;-72
2022/09/22 07:52:49;;;;;;;;;20.75;18.25;;;;;;;;5058596;28;46856;-74
2022/09/22 07:55:14;;;;;;;;;19.75;17.00;;;;;;;;5056451;28;48511;-75
2022/09/22 07:57:39;;;;;;;;;22.50;18.00;;;;;;;;5054709;28;45331;-74
2022/09/22 08:00:05;;;;;;;;;18.50;16.25;;;;;;;;5052211;28;45451;-74
2022/09/22 08:02:30;;;;;;;;;22.75;16.75;;;;;;;;5051863;28;45261;-74
2022/09/22 08:04:58;;;;;;;;;21.75;18.25;;;;;;;;5057590;28;45679;-74
2022/09/22 08:07:24;;;;;;;;;22.75;18.00;;;;;;;;5048060;28;45450;-74
2022/09/22 08:09:49;;;;;;;;;22.75;18.75;;;;;;;;5058751;28;45346;-76
2022/09/22 08:12:15;;;;;;;;;21.25;19.00;;;;;;;;5056293;28;45533;-75
2022/09/22 08:14:41;;;;;;;;;22.25;17.50;;;;;;;;5057540;28;46103;-75
2022/09/22 08:17:11;;;;;;;;;20.75;18.75;;;;;;;;5057018;28;45424;-75
2022/09/22 08:19:36;;;;;;;;;19.50;18.00;;;;;;;;5053934;28;45491;-75
2022/09/22 08:22:01;;;;;;;;;21.00;16.75;;;;;;;;5051758;28;45364;-75
2022/09/22 08:24:26;;;;;;;;;20.00;19.00;;;;;;;;5058339;28;45524;-76
2022/09/22 08:26:54;;;;;;;;;22.25;19.25;;;;;;;;5054250;28;45327;-75
2022/09/22 08:29:19;;;;;;;;;21.00;17.75;;;;;;;;5058489;28;45463;-75
2022/09/22 08:31:46;;;;;;;;;20.75;15.50;;;;;;;;5051574;28;45573;-74
2022/09/22 08:34:15;;;;;;;;;19.25;16.50;;;;;;;;5053415;28;46476;-75
2022/09/22 08:36:45;;;;;;;;;19.00;17.25;;;;;;;;5063224;28;45352;-75
2022/09/22 08:39:10;;;;;;;;;18.00;14.00;;;;;;;;5072299;28;45362;-75
2022/09/22 08:41:48;;;;;;;;;16.00;14.50;;;;;;;;5064255;28;45470;-76
2022/09/22 08:44:18;;;;;;;;;14.50;12.50;;;;;;;;5049123;28;45300;-75
2022/09/22 08:46:44;;;;;;;;;14.50;13.25;;;;;;;;5051465;28;45365;-75
2022/09/22 08:52:21;;;;;;;;;18.00;14.25;;;;;;;;5047954;28;45547;-74
2022/09/22 08:54:47;;;;;;;;;11.33;11.33;;;;;;;;5059882;28;46074;-75
2022/09/22 08:57:12;;;;;;;;;18.50;14.50;;;;;;;;5054249;28;45344;-76
2022/09/22 08:59:58;;;;;;;;;17.33;15.33;;;;;;;;5052732;28;45576;-74
2022/09/22 09:02:31;;;;;;;;;16.00;14.67;;;;;;;;5047554;28;45630;-75
2022/09/22 09:05:14;;;;;;;;;18.00;17.00;;;;;;;;5049868;28;45460;-76
2022/09/22 09:07:45;;;;;;;;;13.33;13.00;;;;;;;;5049869;28;45268;-76
2022/09/22 09:10:14;;;;;;;;;16.67;15.00;;;;;;;;5054246;28;45362;-76
2022/09/22 09:12:39;;;;;;;;;14.67;12.00;;;;;;;;5064521;28;45358;-76
2022/09/22 09:15:22;;;;;;;;;13.67;12.67;;;;;;;;5048664;28;45443;-76
2022/09/22 09:17:49;;;;;;;;;12.00;12.00;;;;;;;;5066779;28;45333;-75
2022/09/22 09:20:16;;;;;;;;;14.67;11.00;;;;;;;;5051755;28;45218;-76
2022/09/22 09:22:54;;;;;;;;;18.33;12.00;;;;;;;;5056116;28;45528;-75
2022/09/22 09:25:24;;;;;;;;;12.67;10.33;;;;;;;;5057704;28;45406;-76
2022/09/22 09:27:53;;;;;;;;;11.33;11.00;;;;;;;;5053168;28;45291;-76
2022/09/22 09:30:20;;;;;;;;;10.67;9.00;;;;;;;;5043732;28;45358;-76
2022/09/22 09:32:59;;;;;;;;;11.67;11.00;;;;;;;;5049886;28;45395;-77
2022/09/22 09:35:36;;;;;;;;;11.33;10.67;;;;;;;;5060104;28;45596;-76
2022/09/22 09:38:07;;;;;;;;;13.33;9.00;;;;;;;;5057223;28;45411;-76
2022/09/22 09:40:32;;;;;;;;;9.67;9.00;;;;;;;;5071777;28;45348;-76
2022/09/22 09:43:02;;;;;;;;;14.00;10.67;;;;;;;;5059772;28;45359;-77
2022/09/22 09:45:32;;;;;;;;;13.00;10.00;;;;;;;;5049481;28;45280;-77
2022/09/22 09:48:24;;;;;;;;;11.67;10.67;;;;;;;;5052831;28;45230;-76
2022/09/22 09:50:49;;;;;;;;;12.67;10.33;;;;;;;;5048307;28;45346;-76
2022/09/22 09:53:27;;;;;;;;;10.67;9.33;;;;;;;;5052753;28;45523;-75
2022/09/22 09:55:52;;;;;;;;;10.50;8.50;;;;;;;;5054282;28;45415;-76
2022/09/22 10:01:04;;;;;;;;;10.33;8.00;;;;;;;;5045891;28;45381;-76
2022/09/22 10:03:32;;;;;;;;;7.00;6.67;;;;;;;;5065991;27;45381;-77
2022/09/22 10:06:03;;;;;;;;;11.00;7.00;;;;;;;;5056305;28;46746;-76
2022/09/22 10:08:35;;;;;;;;;8.67;6.33;;;;;;;;5059953;28;45367;-76
2022/09/22 10:11:01;;;;;;;;;9.00;9.00;;;;;;;;5047630;28;45304;-77
2022/09/22 10:13:37;;;;;;;;;9.00;7.67;;;;;;;;5055041;28;45562;-76
2022/09/22 10:16:17;;;;;;;;;6.00;6.00;;;;;;;;5047101;28;45327;-76
2022/09/22 10:18:42;;;;;;;;;5.00;5.00;;;;;;;;5057751;28;45197;-76
2022/09/22 10:21:21;;;;;;;;;6.33;4.33;;;;;;;;5049770;28;45294;-76
2022/09/22 10:23:46;;;;;;;;;9.50;5.25;;;;;;;;5054057;28;45317;-76
2022/09/22 10:26:16;;;;;;;;;4.00;3.00;;;;;;;;5068417;28;46816;-76
2022/09/22 10:28:41;;;;;;;;;4.75;3.00;;;;;;;;5060744;28;45232;-76
2022/09/22 10:31:17;;;;;;;;;5.00;3.00;;;;;;;;5054865;28;45202;-76
2022/09/22 10:33:52;;;;;;;;;6.00;4.75;;;;;;;;5082221;27;45311;-76
2022/09/22 10:36:17;;;;;;;;;4.50;4.00;;;;;;;;5054842;28;45278;-76
2022/09/22 10:38:43;;;;;;;;;3.50;3.50;;;;;;;;5057828;28;45280;-76
2022/09/22 10:41:18;;;;;;;;;2.75;2.75;;;;;;;;5057040;28;45340;-75
2022/09/22 10:43:50;;;;;;;;;3.25;3.25;;;;;;;;5057666;28;45719;-76
2022/09/22 10:46:15;;;;;;;;;5.00;3.25;;;;;;;;5050332;28;45176;-76
2022/09/22 10:48:41;;;;;;;;;6.00;3.00;;;;;;;;5053608;28;45351;-76
2022/09/22 10:51:11;;;;;;;;;4.25;3.00;;;;;;;;5073434;28;45425;-76
2022/09/22 10:53:36;;;;;;;;;3.00;1.00;;;;;;;;5055123;28;45363;-76
2022/09/22 10:56:13;;;;;;;;;1.50;1.25;;;;;;;;5053921;28;46326;-75
2022/09/22 10:58:56;;;;;;;;;2.00;2.00;;;;;;;;5049965;28;45229;-76
2022/09/22 11:01:40;;;;;;;;;1.00;1.00;;;;;;;;5052631;28;45521;-76
2022/09/22 11:04:29;;;;;;;;;1.00;1.00;;;;;;;;5057320;28;45290;-76
2022/09/22 11:12:44;;;;;;;;;2.00;2.00;;;;;;;;5046470;28;45320;-76
2022/09/22 11:15:24;;;;;;;;;1.50;1.50;;;;;;;;5044572;28;45421;-76
2022/09/22 11:18:05;;;;;;;;;3.50;3.00;;;;;;;;5063111;28;48317;-76
2022/09/22 11:20:38;;;;;;;;;3.25;2.25;;;;;;;;5058284;28;45151;-76
2022/09/22 11:23:15;;;;;;;;;1.75;1.75;;;;;;;;5052984;28;45402;-76
2022/09/22 11:25:44;;;;;;;;;3.75;2.00;;;;;;;;5051764;28;45332;-76
2022/09/22 11:28:09;;;;;;;;;2.75;2.75;;;;;;;;5059473;28;47098;-75
2022/09/22 11:30:51;;;;;;;;;2.75;2.00;;;;;;;;5063791;28;45556;-76
2022/09/22 11:33:19;;;;;;;;;4.25;2.25;;;;;;;;5052112;28;45621;-74
2022/09/22 11:35:58;;;;;;;;;2.25;2.25;;;;;;;;5054157;28;45334;-79
2022/09/22 11:38:42;;;;;;;;;2.00;2.00;;;;;;;;5049778;28;45653;-78
2022/09/22 11:41:19;;;;;;;;;3.75;3.00;;;;;;;;5044198;28;45461;-79
2022/09/22 11:43:50;;;;;;;;;3.75;3.75;;;;;;;;5028645;28;45504;-80
2022/09/22 11:46:34;;;;;;;;;6.00;4.00;;;;;;;;5033260;28;46154;-80
2022/09/22 11:49:15;;;;;;;;;2.00;2.00;;;;;;;;5033052;28;45432;-80
2022/09/22 11:51:53;;;;;;;;;2.60;2.20;;;;;;;;5033483;28;45424;-78
2022/09/22 11:54:24;;;;;;;;;1.50;1.50;;;;;;;;5021365;28;45294;-78
2022/09/22 11:56:51;;;;;;;;;1.00;1.00;;;;;;;;5030636;28;45346;-78
2022/09/22 11:59:37;;;;;;;;;1.25;1.25;;;;;;;;5032430;28;47202;-78
2022/09/22 12:02:04;;;;;;;;;0.50;0.50;;;;;;;;5028390;28;45345;-77
2022/09/22 12:04:38;;;;;;;;;3.00;1.75;;;;;;;;5038796;28;45523;-78
2022/09/22 12:07:08;;;;;;;;;0.75;0.75;;;;;;;;5026497;28;45582;-79
2022/09/22 12:09:39;;;;;;;;;3.25;2.00;;;;;;;;5034806;28;46081;-78
2022/09/22 12:12:06;;;;;;;;;1.00;1.00;;;;;;;;5031643;28;45314;-79
2022/09/22 12:14:32;;;;;;;;;2.00;2.00;;;;;;;;5021295;28;45314;-78
2022/09/22 12:17:02;;;;;;;;;1.25;1.00;;;;;;;;5034176;28;45440;-77
2022/09/22 12:19:42;;;;;;;;;1.25;1.25;;;;;;;;5037975;28;46036;-80
2022/09/22 12:22:31;;;;;;;;;3.00;2.00;;;;;;;;5036520;28;45379;-77
2022/09/22 12:24:57;;;;;;;;;2.50;2.50;;;;;;;;5035663;28;45214;-77
2022/09/22 12:27:26;;;;;;;;;1.50;0.25;;;;;;;;5031898;28;45475;-77
2022/09/22 12:29:53;;;;;;;;;1.40;1.20;;;;;;;;5032399;28;46031;-77
2022/09/22 12:32:23;;;;;;;;;0.80;0.80;;;;;;;;5034095;28;45369;-77
2022/09/22 12:34:49;;;;;;;;;2.50;2.50;;;;;;;;5035641;28;45336;-77
2022/09/22 12:37:24;;;;;;;;;1.00;1.00;;;;;;;;5013282;28;46106;-79
2022/09/22 12:39:49;;;;;;;;;3.25;1.75;;;;;;;;5035875;28;46244;-77
2022/09/22 12:42:25;;;;;;;;;1.00;1.00;;;;;;;;5044228;28;45415;-78
2022/09/22 12:44:53;;;;;;;;;3.00;3.00;;;;;;;;5045396;28;45350;-77
2022/09/22 12:47:31;;;;;;;;;2.75;2.75;;;;;;;;5054027;28;45406;-78
2022/09/22 12:49:57;;;;;;;;;2.50;1.25;;;;;;;;5047003;28;46580;-78
2022/09/22 12:52:38;;;;;;;;;4.00;2.00;;;;;;;;5055889;28;45368;-75
2022/09/22 12:55:22;;;;;;;;;1.25;1.25;;;;;;;;5055597;28;45508;-76
2022/09/22 12:57:49;;;;;;;;;2.75;1.00;;;;;;;;5057571;28;45328;-77
2022/09/22 13:00:33;;;;;;;;;1.25;1.25;;;;;;;;5059047;28;45844;-77
2022/09/22 13:03:00;;;;;;;;;2.00;2.00;;;;;;;;5056430;28;45411;-77
2022/09/22 13:05:25;;;;;;;;;1.00;1.00;;;;;;;;5051289;28;45371;-77
2022/09/22 13:07:52;;;;;;;;;3.00;2.00;;;;;;;;5059612;28;45273;-76
2022/09/22 13:10:21;;;;;;;;;2.00;2.00;;;;;;;;5054557;28;47831;-76
2022/09/22 13:15:30;;;;;;;;;1.25;1.25;;;;;;;;5054568;28;45754;-78
2022/09/22 13:17:56;;;;;;;;;2.00;2.00;;;;;;;;5061521;28;45518;-76
2022/09/22 13:20:31;;;;;;;;;2.00;2.00;;;;;;;;5055313;28;45614;-75
2022/09/22 13:23:10;;;;;;;;;1.00;1.00;;;;;;;;5058289;28;45394;-76
2022/09/22 13:25:36;;;;;;;;;3.00;1.00;;;;;;;;5062267;28;45320;-76
2022/09/22 13:28:08;;;;;;;;;2.25;1.50;;;;;;;;5057127;28;45319;-76
2022/09/22 13:30:38;;;;;;;;;1.50;0.00;;;;;;;;5061110;28;46183;-77
2022/09/22 13:33:03;;;;;;;;;2.75;2.75;;;;;;;;5060163;28;45600;-76
2022/09/22 13:35:39;;;;;;;;;2.00;1.00;;;;;;;;5055138;28;45360;-77
2022/09/22 13:38:04;;;;;;;;;3.00;1.50;;;;;;;;5057228;28;45461;-75
2022/09/22 13:40:33;;;;;;;;;2.25;1.75;;;;;;;;5060109;28;45731;-76
2022/09/22 13:43:01;;;;;;;;;2.20;1.80;;;;;;;;5055931;28;45356;-76
2022/09/22 13:45:29;;;;;;;;;2.25;1.75;;;;;;;;5084406;27;45491;-76
2022/09/22 13:47:55;;;;;;;;;1.50;1.50;;;;;;;;5074235;28;47098;-75
2022/09/22 13:50:21;;;;;;;;;1.25;1.25;;;;;;;;5054551;28;45509;-75
2022/09/22 13:52:48;;;;;;;;;2.50;2.00;;;;;;;;5054385;28;45662;-75
2022/09/22 13:55:20;;;;;;;;;1.50;1.50;;;;;;;;5060786;28;45249;-75
2022/09/22 13:57:46;;;;;;;;;2.00;2.00;;;;;;;;5055681;28;45497;-75
2022/09/22 14:00:18;;;;;;;;;4.00;3.00;;;;;;;;5062815;28;45380;-74
2022/09/22 14:02:44;;;;;;;;;5.75;4.00;;;;;;;;5055562;28;45232;-75
2022/09/22 14:05:15;;;;;;;;;3.00;1.25;;;;;;;;5051677;28;45273;-73
2022/09/22 14:07:41;;;;;;;;;2.50;2.00;;;;;;;;5056095;28;45348;-74
2022/09/22 14:10:08;;;;;;;;;2.00;2.00;;;;;;;;5050505;28;46308;-76
2022/09/22 14:12:33;;;;;;;;;2.00;2.00;;;;;;;;5053821;28;45316;-76
2022/09/22 14:15:17;;;;;;;;;1.75;1.75;;;;;;;;5053492;28;45418;-77
2022/09/22 14:17:43;;;;;;;;;1.00;1.00;;;;;;;;5056579;28;46174;-76
2022/09/22 14:20:08;;;;;;;;;2.00;2.00;;;;;;;;5054265;28;46044;-77
2022/09/22 14:22:40;;;;;;;;;1.75;1.75;;;;;;;;5091358;27;45401;-77
2022/09/22 14:25:06;;;;;;;;;2.00;2.00;;;;;;;;5055559;28;45229;-78
2022/09/22 14:27:32;;;;;;;;;2.50;2.00;;;;;;;;5053442;28;45387;-74
2022/09/22 14:29:57;;;;;;;;;2.00;2.00;;;;;;;;5059652;28;45198;-74
2022/09/22 14:32:32;;;;;;;;;2.50;2.00;;;;;;;;5053856;28;45371;-74
2022/09/22 14:34:59;;;;;;;;;2.50;2.50;;;;;;;;5060590;28;45288;-74
2022/09/22 14:37:25;;;;;;;;;1.00;1.00;;;;;;;;5057127;28;45334;-72
2022/09/22 14:39:51;;;;;;;;;1.25;1.25;;;;;;;;5057641;28;46219;-77
2022/09/22 14:42:20;;;;;;;;;4.20;2.80;;;;;;;;5056607;28;48089;-77
2022/09/22 14:44:49;;;;;;;;;3.00;2.00;;;;;;;;5061161;28;45470;-76
2022/09/22 14:47:22;;;;;;;;;3.50;2.00;;;;;;;;5058269;28;45508;-77
2022/09/22 14:49:48;;;;;;;;;2.00;2.00;;;;;;;;5060193;28;45387;-78
2022/09/22 14:52:33;;;;;;;;;4.25;3.00;;;;;;;;5050221;28;45396;-76
2022/09/22 14:55:01;;;;;;;;;2.00;2.00;;;;;;;;5050815;28;45457;-76
2022/09/22 14:57:27;;;;;;;;;3.00;2.00;;;;;;;;5051990;28;45844;-77